Suva, Fiji
Current Conditions -  °F | °C
As of 1:00 PM on Wednesday 22 Oct 2014 (Local Time) from NFNA Reporting Station
Overcast Overcast  
Wind Chill: 79°   Ceiling: 1800
Heat Index: 82°   Visibility: 6mi
Dew Point: 73°   Wind: 7mph
Humidity: 83%   Direction: 110°ESE
Pressure: 29.85"   Gusts: NA
Location:  18.13°S, 178.43°E
Report Text: NFNA 220100Z 11006KT 9999 BKN018 BKN042 OVC110 26/23 Q1011
Loading
Personal Weather Stations






























Interactive Weather Map
Tropical Storm Tracking
New forecast layout! Learn more

10-Day Weather Forecast

Advertisements
Track Severe Weather on mobile